Latest Weather Observations for Urandangi

IDQ60801

Issued at 5:05 pm EST Saturday 29 November 2014 (issued every 30 minutes, with the page automatically refreshed every 10 minutes)

About weather observations | Map of weather stations | Latest weather observations for QLD | Other Formats
Station Details ID: 037058 Name: URANDANGI AERODROME Lat: -21.60 Lon: 138.37 Height: 178.6 m
Data from the previous 72 hours. | See also: Recent months at Urandangi
Date/Time
EST
Temp
°C
App
Temp
°C
Dew
Point
Rel
Hum
%
Delta-T
°C
Wind Press
QNH
hPa
Press
MSL
hPa
Rain
since 9 am
mm
Dir
 
Spd
km/h
Gust
km/h
Spd
kts
Gust
kts
29/05:00pm 37.9 35.5 12.5 22 15.6 N 17 26 9 14 1003.6 1002.4 0.0
29/04:30pm 38.7 36.9 13.2 22 15.8 N 15 22 8 12 1003.7 1002.5 0.0
29/04:00pm 38.8 38.0 13.9 22 15.6 N 11 19 6 10 1004.0 1002.8 0.0
29/03:30pm 38.7 37.8 13.8 22 15.5 NW 11 19 6 10 1004.5 1003.3 0.0
29/03:00pm 38.2 35.7 13.4 23 15.4 N 19 28 10 15 1005.2 1004.0 0.0
29/02:30pm 39.2 38.5 14.3 23 15.7 NW 11 24 6 13 1005.7 1004.5 0.0
29/02:00pm 37.9 35.3 13.8 23 15.0 NNW 20 37 11 20 1006.3 1005.1 0.0
29/01:30pm 38.7 36.6 15.1 24 15.0 N 20 32 11 17 1006.8 1005.6 0.0
29/01:00pm 37.8 37.0 15.0 26 14.5 N 13 30 7 16 1007.4 1006.2 0.0
29/12:30pm 36.3 36.2 15.9 29 13.0 N 11 19 6 10 1007.9 1006.7 0.0
29/12:00pm 35.7 36.5 16.4 31 12.4 NNE 7 19 4 10 1008.4 1007.2 0.0
29/11:30am 34.7 35.2 16.5 33 11.6 NE 9 22 5 12 1009.0 1007.8 0.0
29/11:00am 34.6 35.2 16.9 35 11.4 N 9 17 5 9 1009.4 1008.2 0.0
29/10:30am 32.8 34.0 17.4 39 9.9 N 7 19 4 10 1009.8 1008.6 0.0
29/10:00am 32.3 33.3 17.7 41 9.4 NW 9 15 5 8 1010.2 1009.0 0.0
29/09:30am 31.4 32.4 18.7 46 8.3 NW 11 19 6 10 1010.5 1009.3 0.0
29/09:00am 30.2 30.9 18.9 50 7.4 NW 13 19 7 10 1010.8 1009.6 0.0
29/08:30am 29.3 30.1 19.0 53 6.7 NW 13 19 7 10 1010.7 1009.5 0.0
29/08:00am 28.1 29.2 18.8 57 6.0 NNW 11 19 6 10 1010.9 1009.7 0.0
29/07:30am 27.6 28.8 19.1 59 5.5 N 11 17 6 9 1010.8 1009.6 0.0
29/07:00am 27.0 28.4 19.6 64 4.8 NNE 11 15 6 8 1010.6 1009.4 0.0
29/06:30am 26.4 27.9 19.8 67 4.3 NNE 11 17 6 9 1010.2 1009.0 0.0
29/06:00am 25.7 27.9 19.6 69 4.0 NE 7 11 4 6 1009.7 1008.5 0.0
29/05:30am 25.2 26.9 18.4 66 4.3 E 7 9 4 5 1009.3 1008.1 0.0
29/05:00am 25.8 27.2 18.7 65 4.6 ENE 9 13 5 7 1009.0 1007.8 0.0
29/04:30am 26.3 28.4 19.4 66 4.5 N 7 9 4 5 1008.4 1007.2 0.0
29/04:00am 26.6 29.0 18.7 62 5.1 N 4 6 2 3 1008.2 1007.0 0.0
29/03:30am 27.4 28.7 19.2 61 5.3 NNW 11 15 6 8 1007.9 1006.7 0.0
29/03:00am 27.8 29.3 18.8 58 5.8 NNW 9 13 5 7 1007.8 1006.6 0.0
29/02:30am 28.4 28.7 18.8 56 6.2 N 15 20 8 11 1008.0 1006.8 0.0
29/02:00am 28.4 29.0 17.6 52 6.9 N 11 17 6 9 1008.1 1006.9 0.0
29/01:30am 27.4 28.1 15.7 48 7.2 N 6 7 3 4 1008.3 1007.1 0.0
29/01:00am 27.5 28.1 15.2 47 7.5 N 6 6 3 3 1008.4 1007.2 0.0
29/12:30am 27.4 29.0 14.8 46 7.7 CALM 0 0 0 0 1008.4 1007.2 0.0
29/12:00am 27.9 29.9 15.9 48 7.4 CALM 0 4 0 2 1008.4 1007.2 0.0
 
Date/Time
EST
Temp
°C
App
Temp
°C
Dew
Point
Rel
Hum
%
Delta-T
°C
Wind Press
QNH
hPa
Press
MSL
hPa
Rain
since 9 am
mm
Dir
 
Spd
km/h
Gust
km/h
Spd
kts
Gust
kts
28/11:30pm 28.4 29.6 15.0 44 8.2 N 2 4 1 2 1008.8 1007.6 0.0
28/11:00pm 30.0 30.9 16.1 43 8.7 N 6 7 3 4 1008.9 1007.7 0.0
28/10:30pm 30.5 31.2 16.1 41 9.0 N 7 11 4 6 1009.1 1007.9 0.0
28/10:00pm 31.0 31.7 16.2 41 9.3 NNE 7 9 4 5 1009.0 1007.8 0.0
28/09:30pm 31.6 30.9 16.4 40 9.6 NE 15 20 8 11 1008.9 1007.7 0.0
28/09:00pm 32.0 30.4 15.9 38 10.1 NNE 19 26 10 14 1008.6 1007.4 0.0
28/08:30pm 32.8 30.4 15.3 34 10.9 NE 22 30 12 16 1008.5 1007.3 0.0
28/08:00pm 33.5 30.9 15.0 32 11.6 ENE 22 28 12 15 1008.1 1006.9 0.0
28/07:30pm 34.0 32.4 15.0 32 11.9 ENE 17 24 9 13 1007.7 1006.5 0.0
28/07:00pm 34.1 31.6 15.1 32 11.9 E 22 30 12 16 1007.4 1006.2 0.0
28/06:30pm 36.3 33.1 13.1 25 14.2 SE 22 30 12 16 1006.9 1005.7 0.0
28/06:00pm 36.2 32.6 13.0 24 14.2 SSE 24 33 13 18 1006.5 1005.3 0.0
28/05:30pm 37.5 35.0 12.2 22 15.4 ESE 17 24 9 13 1006.3 1005.1 0.0
28/05:00pm 38.1 35.1 12.7 22 15.6 SE 20 28 11 15 1006.0 1004.8 0.0
28/04:30pm 38.0 35.4 13.3 23 15.3 S 19 26 10 14 1006.4 1005.2 0.0
28/04:00pm 37.4 36.2 12.8 23 15.1 ESE 11 15 6 8 1006.5 1005.3 0.0
28/03:30pm 36.9 36.0 13.6 24 14.4 ESE 11 19 6 10 1007.0 1005.8 0.0
28/03:00pm 37.3 36.5 14.0 25 14.5 ESE 11 19 6 10 1007.5 1006.3 0.0
28/02:30pm 37.1 36.8 14.4 26 14.2 SW 9 15 5 8 1007.9 1006.7 0.0
28/02:00pm 37.1 37.0 13.2 24 14.7 W 6 11 3 6 1008.3 1007.1 0.0
28/01:30pm 36.5 35.8 13.3 25 14.3 WSW 9 17 5 9 1008.8 1007.6 0.0
28/01:00pm 36.6 36.0 13.4 25 14.3 SSW 9 17 5 9 1009.3 1008.1 0.0
28/12:30pm 36.3 35.8 13.7 25 14.0 SE 9 15 5 8 1009.9 1008.7 0.0
28/12:00pm 35.9 36.2 14.5 27 13.4 SSE 6 13 3 7 1010.2 1009.0 0.0
28/11:30am 34.9 34.5 14.2 28 12.8 ENE 9 19 5 10 1010.5 1009.3 0.0
28/11:00am 35.3 35.1 14.6 29 12.9 E 9 17 5 9 1010.9 1009.7 0.0
28/10:30am 34.2 35.3 15.6 32 11.7 ENE 4 7 2 4 1011.2 1010.1 0.0
28/10:00am 33.6 34.5 16.0 34 11.1 NNE 6 13 3 7 1011.1 1010.0 0.0
28/09:30am 32.3 33.6 16.2 38 10.2 NNE 4 9 2 5 1011.2 1010.1 0.0
28/09:00am 31.4 33.0 16.9 41 9.2 E 4 6 2 3 1011.3 1010.2 0.0
28/08:30am 30.3 32.3 17.0 44 8.4 ENE 2 6 1 3 1011.2 1010.1 0.0
28/08:00am 28.7 31.5 17.9 52 6.9 CALM 0 4 0 2 1011.2 1010.1 0.0
28/07:30am 27.1 29.5 18.7 60 5.4 ENE 4 6 2 3 1011.1 1010.0 0.0
28/07:00am 26.0 29.1 18.7 64 4.7 CALM 0 0 0 0 1011.0 1009.8 0.0
28/06:30am 25.1 27.7 18.3 66 4.3 ENE 2 4 1 2 1011.0 1009.8 0.0
28/06:00am 24.5 26.7 18.4 69 3.9 ENE 4 6 2 3 1010.9 1009.7 0.0
28/05:30am 24.1 26.8 17.8 68 4.0 CALM 0 4 0 2 1010.6 1009.4 0.0
28/05:00am 24.4 27.0 17.6 66 4.3 CALM 0 2 0 1 1010.5 1009.3 0.0
28/04:30am 24.8 26.6 17.5 64 4.6 ENE 4 6 2 3 1010.3 1009.1 0.0
28/04:00am 25.4 27.7 17.8 62 4.8 ENE 2 6 1 3 1010.1 1008.9 0.0
28/03:30am 25.8 27.5 17.2 59 5.4 ENE 4 6 2 3 1010.1 1008.9 0.0
28/03:00am 27.2 28.3 17.9 56 5.9 NE 9 13 5 7 1010.3 1009.1 0.0
28/02:30am 27.4 27.5 18.4 58 5.8 NE 15 19 8 10 1010.3 1009.1 0.0
28/02:00am 27.1 27.2 19.2 62 5.1 ENE 17 24 9 13 1010.6 1009.4 0.0
28/01:30am 27.6 27.2 18.9 59 5.6 ENE 19 24 10 13 1010.8 1009.6 0.0
28/01:00am 27.7 26.9 19.2 60 5.5 ENE 22 28 12 15 1011.0 1009.8 0.0
28/12:30am 27.9 27.9 18.9 58 5.8 E 17 24 9 13 1011.5 1010.4 0.0
28/12:00am 27.8 28.2 18.2 56 6.2 ESE 13 20 7 11 1011.4 1010.3 0.0
 
Date/Time
EST
Temp
°C
App
Temp
°C
Dew
Point
Rel
Hum
%
Delta-T
°C
Wind Press
QNH
hPa
Press
MSL
hPa
Rain
since 9 am
mm
Dir
 
Spd
km/h
Gust
km/h
Spd
kts
Gust
kts
27/11:30pm 28.0 27.1 18.1 55 6.3 ESE 20 28 11 15 1011.7 1010.6 0.0
27/11:00pm 28.7 28.5 17.6 51 7.1 ESE 15 22 8 12 1011.9 1010.8 0.0
27/10:30pm 28.4 26.0 17.3 51 7.0 ESE 26 39 14 21 1011.7 1010.6 0.0
27/10:00pm 29.6 27.5 16.1 44 8.4 SSE 22 30 12 16 1011.5 1010.4 0.0
27/09:30pm 29.8 28.0 16.9 45 8.2 S 22 32 12 17 1011.1 1010.0 0.0
27/09:05pm 32.2 27.5 14.8 35 10.8 SSW 33 44 18 24 1010.7 1009.5 0.0
27/09:00pm 32.7 31.8 14.8 34 11.1 SW 13 20 7 11 1010.6 1009.4 0.0
27/08:30pm 34.8 33.7 13.0 26 13.3 E 11 22 6 12 1009.2 1008.0 0.0
27/08:00pm 35.1 32.3 12.7 26 13.6 SE 19 24 10 13 1008.6 1007.4 0.0
27/07:30pm 35.9 33.0 12.2 24 14.3 SW 19 24 10 13 1008.1 1006.9 0.0
27/07:00pm 37.1 35.0 11.1 21 15.6 SE 13 17 7 9 1007.5 1006.3 0.0
27/06:30pm 38.1 37.5 10.5 19 16.4 SSE 4 7 2 4 1006.9 1005.7 0.0
27/06:00pm 38.7 36.7 10.1 18 17.0 SE 11 17 6 9 1006.7 1005.5 0.0
27/05:30pm 38.6 36.6 10.0 18 16.9 SE 11 24 6 13 1006.6 1005.4 0.0
27/05:00pm 38.5 32.7 10.8 19 16.6 SSE 32 37 17 20 1006.4 1005.2 0.0
27/04:30pm 40.0 37.3 10.3 17 17.7 NNE 15 28 8 15 1006.5 1005.3 0.0
27/04:00pm 39.4 36.0 10.7 18 17.2 NNE 19 26 10 14 1006.7 1005.5 0.0
27/03:30pm 38.1 36.2 10.5 19 16.4 ESE 11 20 6 11 1007.0 1005.8 0.0
27/03:00pm 38.8 36.1 10.2 18 17.0 S 15 24 8 13 1007.4 1006.2 0.0
27/02:30pm 38.8 35.3 10.2 18 17.0 SE 19 26 10 14 1007.8 1006.6 0.0
27/02:00pm 39.5 39.1 9.9 17 17.6 S 2 9 1 5 1008.0 1006.8 0.0
27/01:30pm 40.9 38.5 10.1 16 18.4 ESE 13 19 7 10 1008.3 1007.1 0.0
27/01:00pm 38.9 37.3 10.3 18 17.0 S 9 13 5 7 1008.8 1007.6 0.0
27/12:30pm 39.0 38.4 10.4 18 17.0 N 4 7 2 4 1009.1 1007.9 0.0
27/12:00pm 39.1 37.6 10.4 18 17.1 E 9 19 5 10 1009.5 1008.3 0.0
27/11:30am 38.0 34.9 10.4 19 16.4 E 17 32 9 17 1009.9 1008.7 0.0
27/11:00am 37.1 35.2 11.8 22 15.3 E 13 22 7 12 1010.3 1009.1 0.0
27/10:30am 36.9 34.8 12.4 23 14.9 E 15 22 8 12 1010.5 1009.3 0.0
27/10:00am 36.0 33.9 13.5 26 13.9 E 17 26 9 14 1010.8 1009.6 0.0
27/09:30am 34.9 32.8 13.7 28 13.0 E 17 28 9 15 1010.8 1009.6 0.0
27/09:00am 34.7 33.3 14.6 30 12.5 E 15 20 8 11 1011.0 1009.8 0.0
27/08:30am 32.3 31.0 14.9 35 10.8 SE 15 17 8 9 1011.1 1010.0 0.0
27/08:00am 31.4 31.3 15.0 37 10.2 SSE 9 13 5 7 1011.0 1009.8 0.0
27/07:30am 30.5 30.2 15.4 40 9.4 SE 11 15 6 8 1011.1 1010.0 0.0
27/07:00am 29.3 29.7 15.4 42 8.6 SE 7 9 4 5 1010.9 1009.7 0.0
27/06:30am 27.4 27.6 15.7 48 7.2 SSE 9 13 5 7 1010.4 1009.2 0.0
27/06:00am 25.3 25.7 15.3 54 6.1 S 7 9 4 5 1010.0 1008.8 0.0
27/05:30am 25.4 25.8 15.4 54 6.1 S 7 7 4 4 1009.9 1008.7 0.0
27/05:00am 26.0 27.0 15.4 52 6.5 S 4 6 2 3 1009.6 1008.4 0.0
27/04:30am 26.2 27.2 15.3 51 6.6 S 4 4 2 2 1009.4 1008.2 0.0
27/04:00am 26.5 27.8 15.2 49 6.9 S 2 4 1 2 1009.2 1008.0 0.0
27/03:30am 26.6 27.6 15.3 50 6.9 S 4 4 2 2 1009.2 1008.0 0.0
27/03:00am 26.7 28.2 15.7 51 6.8 S 2 2 1 1 1009.1 1007.9 0.0
27/02:30am 27.2 27.8 15.9 50 7.0 S 7 9 4 5 1009.1 1007.9 0.0
27/02:00am 27.5 28.2 16.1 49 7.1 SSE 7 9 4 5 1009.1 1007.9 0.0
27/01:30am 28.1 29.5 16.4 49 7.3 SSE 4 6 2 3 1009.3 1008.1 0.0
27/01:00am 28.3 29.4 16.6 49 7.3 SSE 6 7 3 4 1009.5 1008.3 0.0
27/12:30am 28.9 29.8 16.5 47 7.8 S 7 9 4 5 1009.8 1008.6 0.0
27/12:00am 29.1 29.5 16.3 46 8.0 S 9 13 5 7 1010.1 1008.9 0.0
 
Date/Time
EST
Temp
°C
App
Temp
°C
Dew
Point
Rel
Hum
%
Delta-T
°C
Wind Press
QNH
hPa
Press
MSL
hPa
Rain
since 9 am
mm
Dir
 
Spd
km/h
Gust
km/h
Spd
kts
Gust
kts
26/11:30pm 29.3 29.6 16.1 44 8.2 SSE 9 13 5 7 1010.2 1009.0 0.0
26/11:00pm 29.4 29.8 16.2 44 8.3 SSE 9 11 5 6 1010.6 1009.4 0.0
26/10:30pm 29.9 29.8 16.0 43 8.7 SSE 11 15 6 8 1010.7 1009.5 0.0
26/10:00pm 30.4 30.2 15.7 41 9.2 S 11 15 6 8 1010.7 1009.5 0.0
26/09:30pm 30.7 30.3 15.2 39 9.6 SE 11 15 6 8 1010.6 1009.4 0.0
26/09:00pm 31.5 30.7 15.0 36 10.2 SE 13 19 7 10 1010.1 1008.9 0.0
26/08:30pm 32.1 30.0 14.7 35 10.7 ESE 19 24 10 13 1009.9 1008.7 0.0
26/08:00pm 32.2 31.7 13.9 33 11.2 ESE 9 13 5 7 1009.5 1008.3 0.0
26/07:30pm 32.6 30.7 14.2 32 11.3 SE 17 22 9 12 1009.3 1008.1 0.0
26/07:00pm 32.8 29.7 14.4 33 11.4 SSE 24 37 13 20 1009.3 1008.1 0.0
26/06:30pm 33.8 31.0 14.3 31 12.0 E 22 28 12 15 1008.8 1007.6 0.0
26/06:00pm 35.1 33.1 13.9 28 13.1 ESE 17 24 9 13 1008.5 1007.3 0.0
26/05:30pm 35.4 34.0 13.5 26 13.5 SE 13 20 7 11 1008.3 1007.1 0.0

Other Formats:

Comma delimited format used in spreadsheet applications
http://www.bom.gov.au/fwo/IDQ60801/IDQ60801.94344.axf

JavaScript Object Notation format (JSON) in row-major order
http://www.bom.gov.au/fwo/IDQ60801/IDQ60801.94344.json